createdAt,value
2023-01-08T00:00:00.177Z,992.7
2023-01-08T00:05:00.112Z,992.7
2023-01-08T00:10:00.096Z,992.66
2023-01-08T00:15:00.294Z,992.64
2023-01-08T00:20:00.108Z,992.65
2023-01-08T00:25:00.108Z,992.6
2023-01-08T00:30:00.158Z,992.49
2023-01-08T00:35:00.210Z,992.38
2023-01-08T00:40:00.098Z,992.37
2023-01-08T00:45:00.145Z,992.36
2023-01-08T00:50:00.124Z,992.32
2023-01-08T00:55:00.237Z,992.2
2023-01-08T01:00:00.155Z,992.11
2023-01-08T01:05:00.147Z,991.98
2023-01-08T01:10:00.111Z,991.83
2023-01-08T01:15:00.216Z,991.93
2023-01-08T01:20:00.114Z,991.94
2023-01-08T01:25:00.122Z,991.85
2023-01-08T01:30:00.134Z,991.73
2023-01-08T01:35:00.329Z,991.9
2023-01-08T01:40:00.158Z,991.8
2023-01-08T01:45:00.124Z,991.85
2023-01-08T01:50:00.117Z,991.87
2023-01-08T01:55:00.174Z,991.92
2023-01-08T02:00:00.149Z,991.88
2023-01-08T02:05:00.130Z,991.82
2023-01-08T02:10:00.163Z,991.66
2023-01-08T02:15:00.275Z,991.71
2023-01-08T02:20:00.090Z,991.73
2023-01-08T02:25:00.110Z,991.76
2023-01-08T02:30:00.122Z,991.57
2023-01-08T02:35:00.229Z,991.49
2023-01-08T02:40:00.146Z,991.64
2023-01-08T02:45:00.097Z,991.44
2023-01-08T02:50:00.118Z,991.31
2023-01-08T02:55:00.116Z,991.23
2023-01-08T03:00:00.129Z,991.12
2023-01-08T03:05:00.108Z,991.07
2023-01-08T03:10:00.112Z,990.97
2023-01-08T03:15:00.204Z,991.14
2023-01-08T03:20:00.124Z,991.14
2023-01-08T03:25:00.093Z,991.17
2023-01-08T03:30:00.120Z,991.04
2023-01-08T03:35:00.203Z,991.2
2023-01-08T03:40:00.124Z,991.2
2023-01-08T03:45:00.108Z,990.97
2023-01-08T03:50:00.102Z,990.91
2023-01-08T03:55:00.227Z,990.91
2023-01-08T04:00:00.144Z,990.87
2023-01-08T04:05:00.113Z,990.94
2023-01-08T04:10:00.144Z,990.83
2023-01-08T04:15:00.228Z,990.91
2023-01-08T04:20:00.116Z,990.9
2023-01-08T04:25:00.110Z,990.86
2023-01-08T04:30:00.109Z,990.17
2023-01-08T04:35:00.219Z,990.18
2023-01-08T04:40:00.128Z,990.17
2023-01-08T04:45:00.119Z,989.94
2023-01-08T04:50:00.116Z,990.05
2023-01-08T04:55:00.212Z,990
2023-01-08T05:00:00.158Z,989.96
2023-01-08T05:05:00.107Z,990.04
2023-01-08T05:10:00.120Z,989.91
2023-01-08T05:15:00.206Z,989.98
2023-01-08T05:20:00.112Z,989.84
2023-01-08T05:25:00.126Z,989.7
2023-01-08T05:30:00.139Z,989.74
2023-01-08T05:35:00.224Z,989.67
2023-01-08T05:40:00.159Z,989.7
2023-01-08T05:45:00.100Z,989.66
2023-01-08T05:50:00.091Z,989.52
2023-01-08T05:55:00.292Z,989.55
2023-01-08T06:00:00.133Z,989.55
2023-01-08T06:05:00.122Z,989.54
2023-01-08T06:10:00.116Z,989.4
2023-01-08T06:15:00.239Z,989.59
2023-01-08T06:20:00.134Z,989.52
2023-01-08T06:25:00.103Z,989.64
2023-01-08T06:30:00.143Z,989.65
2023-01-08T06:35:00.210Z,989.62
2023-01-08T06:40:00.108Z,989.6
2023-01-08T06:45:00.116Z,989.76
2023-01-08T06:50:00.123Z,989.72
2023-01-08T06:55:00.206Z,989.71
2023-01-08T07:00:00.129Z,989.59
2023-01-08T07:05:00.100Z,989.68
2023-01-08T07:10:00.150Z,989.66
2023-01-08T07:15:00.261Z,989.63
2023-01-08T07:20:00.126Z,989.59
2023-01-08T07:25:00.107Z,989.54
2023-01-08T07:30:00.140Z,989.6
2023-01-08T07:35:00.237Z,989.59
2023-01-08T07:40:00.117Z,989.52
2023-01-08T07:45:00.135Z,989.49
2023-01-08T07:50:00.122Z,989.42
2023-01-08T07:55:00.216Z,989.3
2023-01-08T08:00:00.147Z,989.2
2023-01-08T08:05:00.128Z,989.16
2023-01-08T08:10:00.126Z,989.15
2023-01-08T08:15:00.256Z,989.18
2023-01-08T08:20:00.106Z,989.31
2023-01-08T08:25:00.107Z,989.32
2023-01-08T08:30:00.134Z,989.32
2023-01-08T08:35:00.211Z,989.38
2023-01-08T08:40:00.129Z,989.46
2023-01-08T08:45:00.099Z,989.58
2023-01-08T08:50:00.129Z,989.69
2023-01-08T08:55:00.224Z,989.54
2023-01-08T09:00:01.222Z,989.49
2023-01-08T09:05:00.103Z,989.48
2023-01-08T09:10:00.134Z,989.37
2023-01-08T09:15:00.229Z,989.41
2023-01-08T09:20:00.119Z,989.44
2023-01-08T09:25:00.101Z,989.39
2023-01-08T09:30:00.165Z,989.26
2023-01-08T09:35:00.219Z,989.34
2023-01-08T09:40:02.326Z,989.24
2023-01-08T09:45:00.169Z,989.2
2023-01-08T09:50:00.136Z,989.28
2023-01-08T09:55:00.218Z,989.24
2023-01-08T10:00:00.159Z,989.31
2023-01-08T10:05:00.125Z,989.32
2023-01-08T10:10:00.118Z,989.36
2023-01-08T10:15:00.241Z,989.17
2023-01-08T10:20:00.126Z,989.1
2023-01-08T10:25:00.125Z,988.98
2023-01-08T10:30:00.140Z,988.99
2023-01-08T10:35:00.237Z,988.88
2023-01-08T10:40:00.127Z,988.91
2023-01-08T10:45:00.110Z,988.95
2023-01-08T10:50:00.175Z,988.94
2023-01-08T10:55:00.138Z,988.95
2023-01-08T11:00:00.111Z,988.82
2023-01-08T11:05:00.108Z,988.67
2023-01-08T11:10:00.113Z,988.69
2023-01-08T11:15:00.126Z,988.68
2023-01-08T11:20:00.157Z,988.39
2023-01-08T11:25:00.108Z,988.4
2023-01-08T11:30:00.130Z,988.35
2023-01-08T11:35:00.129Z,988.26
2023-01-08T11:40:00.106Z,988.26
2023-01-08T11:45:00.127Z,988.03
2023-01-08T11:50:00.130Z,988.15
2023-01-08T11:55:00.110Z,988.12
2023-01-08T12:00:00.147Z,988
2023-01-08T12:05:00.129Z,987.93
2023-01-08T12:10:00.142Z,987.91
2023-01-08T12:15:00.137Z,987.82
2023-01-08T12:20:00.156Z,987.78
2023-01-08T12:25:00.112Z,987.85
2023-01-08T12:30:00.142Z,987.84
2023-01-08T12:35:00.125Z,987.74
2023-01-08T12:40:00.128Z,987.75
2023-01-08T12:45:00.142Z,987.75
2023-01-08T12:50:00.144Z,987.74
2023-01-08T12:55:00.146Z,987.73
2023-01-08T13:00:00.120Z,987.75
2023-01-08T13:05:00.124Z,987.63
2023-01-08T13:10:00.096Z,987.49
2023-01-08T13:15:00.137Z,987.41
2023-01-08T13:20:00.141Z,987.38
2023-01-08T13:25:02.196Z,987.4
2023-01-08T13:30:00.177Z,987.23
2023-01-08T13:35:00.141Z,987.12
2023-01-08T13:40:00.133Z,987.03
2023-01-08T13:45:00.129Z,987.04
2023-01-08T13:50:00.111Z,986.99
2023-01-08T13:55:00.131Z,987.01
2023-01-08T14:00:00.140Z,986.95
2023-01-08T14:05:00.150Z,986.93
2023-01-08T14:10:00.131Z,986.91
2023-01-08T14:15:00.149Z,987.01
2023-01-08T14:20:00.168Z,986.91
2023-01-08T14:25:00.133Z,986.91
2023-01-08T14:30:00.168Z,986.88
2023-01-08T14:35:00.155Z,987.04
2023-01-08T14:40:00.110Z,986.98
2023-01-08T14:45:00.119Z,987.08
2023-01-08T14:50:00.149Z,987.14
2023-01-08T14:55:00.165Z,987.24
2023-01-08T15:00:00.135Z,987.24
2023-01-08T15:05:00.158Z,987.09
2023-01-08T15:10:00.118Z,987.09
2023-01-08T15:15:00.138Z,987.03
2023-01-08T15:20:00.127Z,987.17
2023-01-08T15:25:00.123Z,986.92
2023-01-08T15:30:00.214Z,987.09
2023-01-08T15:35:00.177Z,987.06
2023-01-08T15:40:00.112Z,987.03
2023-01-08T15:45:00.131Z,986.99
2023-01-08T15:50:00.155Z,987.02
2023-01-08T15:55:00.124Z,987.03
2023-01-08T16:00:00.145Z,987
2023-01-08T16:05:00.149Z,986.84
2023-01-08T16:10:00.141Z,986.69
2023-01-08T16:15:00.132Z,987.37
2023-01-08T16:20:00.091Z,986.86
2023-01-08T16:25:00.133Z,986.73
2023-01-08T16:30:00.113Z,986.77
2023-01-08T16:35:00.141Z,986.75
2023-01-08T16:40:00.133Z,986.71
2023-01-08T16:45:00.122Z,986.58
2023-01-08T16:50:00.134Z,986.62
2023-01-08T16:55:00.132Z,986.62
2023-01-08T17:00:00.142Z,986.55
2023-01-08T17:05:00.138Z,986.66
2023-01-08T17:10:00.126Z,986.58
2023-01-08T17:15:00.154Z,986.62
2023-01-08T17:20:00.119Z,986.49
2023-01-08T17:25:00.127Z,986.37
2023-01-08T17:30:00.155Z,986.39
2023-01-08T17:35:00.115Z,986.37
2023-01-08T17:40:00.129Z,986.3
2023-01-08T17:45:00.106Z,986.13
2023-01-08T17:50:00.113Z,986.25
2023-01-08T17:55:00.136Z,986.12
2023-01-08T18:00:00.157Z,986.09
2023-01-08T18:05:00.102Z,986.07
2023-01-08T18:10:00.161Z,985.99
2023-01-08T18:15:00.137Z,985.87
2023-01-08T18:20:00.215Z,985.96
2023-01-08T18:25:00.123Z,985.96
2023-01-08T18:30:00.218Z,985.86
2023-01-08T18:35:00.142Z,985.9
2023-01-08T18:40:00.170Z,985.99
2023-01-08T18:45:00.105Z,985.93
2023-01-08T18:50:00.102Z,985.79
2023-01-08T18:55:00.171Z,985.72
2023-01-08T19:00:00.130Z,985.63
2023-01-08T19:05:00.085Z,985.57
2023-01-08T19:10:00.195Z,985.6
2023-01-08T19:15:00.130Z,985.52
2023-01-08T19:20:00.207Z,985.49
2023-01-08T19:25:00.085Z,985.36
2023-01-08T19:30:00.127Z,985.36
2023-01-08T19:35:00.167Z,985.18
2023-01-08T19:40:00.173Z,985.17
2023-01-08T19:45:00.113Z,985.13
2023-01-08T19:50:00.130Z,985.21
2023-01-08T19:55:00.135Z,984.97
2023-01-08T20:00:00.120Z,984.98
2023-01-08T20:05:00.122Z,984.9
2023-01-08T20:10:00.115Z,984.75
2023-01-08T20:15:00.636Z,984.72
2023-01-08T20:20:00.131Z,984.67
2023-01-08T20:25:00.098Z,984.72
2023-01-08T20:30:00.156Z,984.79
2023-01-08T20:35:00.126Z,984.82
2023-01-08T20:40:00.137Z,984.72
2023-01-08T20:45:00.115Z,984.7
2023-01-08T20:50:00.452Z,984.6
2023-01-08T20:55:00.149Z,984.59
2023-01-08T21:00:00.146Z,984.66
2023-01-08T21:05:00.129Z,984.66
2023-01-08T21:10:00.104Z,984.66
2023-01-08T21:15:00.118Z,984.53
2023-01-08T21:20:00.149Z,984.47
2023-01-08T21:25:00.117Z,984.5
2023-01-08T21:30:00.156Z,985.02
2023-01-08T21:35:00.123Z,984.95
2023-01-08T21:40:00.135Z,984.83
2023-01-08T21:45:00.105Z,984.66
2023-01-08T21:50:00.104Z,984.56
2023-01-08T21:55:00.169Z,984.47
2023-01-08T22:00:00.156Z,984.45
2023-01-08T22:05:00.112Z,984.45
2023-01-08T22:10:00.127Z,984.34
2023-01-08T22:15:00.138Z,984.35
2023-01-08T22:20:00.127Z,984.36
2023-01-08T22:25:00.098Z,984.43
2023-01-08T22:30:00.151Z,984.5
2023-01-08T22:35:00.114Z,984.39
2023-01-08T22:40:00.156Z,984.19
2023-01-08T22:45:00.130Z,984.26
2023-01-08T22:50:00.100Z,984.25
2023-01-08T22:55:00.139Z,984.13
2023-01-08T23:00:00.164Z,984.04
2023-01-08T23:05:00.112Z,984.12
2023-01-08T23:10:00.108Z,984.15
2023-01-08T23:15:00.162Z,983.97
2023-01-08T23:20:00.110Z,983.93
2023-01-08T23:25:00.139Z,983.84
2023-01-08T23:30:00.156Z,983.77
2023-01-08T23:35:00.120Z,983.69
2023-01-08T23:40:00.117Z,983.48
2023-01-08T23:45:00.096Z,983.44
2023-01-08T23:50:00.160Z,983.44
2023-01-08T23:55:00.139Z,983.29
